createdAt,value
2017-08-12T00:01:04.770Z,17.00
2017-08-12T00:03:32.964Z,16.90
2017-08-12T00:06:01.132Z,17.00
2017-08-12T00:08:29.302Z,17.00
2017-08-12T00:10:57.481Z,17.00
2017-08-12T00:13:25.634Z,17.00
2017-08-12T00:15:53.798Z,17.00
2017-08-12T00:18:22.766Z,17.00
2017-08-12T00:20:50.914Z,17.00
2017-08-12T00:23:19.066Z,17.00
2017-08-12T00:25:47.260Z,16.90
2017-08-12T00:28:15.406Z,16.90
2017-08-12T00:30:43.573Z,16.90
2017-08-12T00:33:11.751Z,16.90
2017-08-12T00:35:39.925Z,16.90
2017-08-12T00:38:08.073Z,17.00
2017-08-12T00:40:36.265Z,17.00
2017-08-12T00:43:04.426Z,17.00
2017-08-12T00:45:33.348Z,17.00
2017-08-12T00:48:01.543Z,17.00
2017-08-12T00:50:29.693Z,17.00
2017-08-12T00:52:57.838Z,17.10
2017-08-12T00:55:26.019Z,17.10
2017-08-12T00:57:54.955Z,17.10
2017-08-12T01:00:23.121Z,17.10
2017-08-12T01:02:51.295Z,17.10
2017-08-12T01:05:19.457Z,17.10
2017-08-12T01:07:47.601Z,17.10
2017-08-12T01:10:15.783Z,17.10
2017-08-12T01:12:44.728Z,17.00
2017-08-12T01:15:12.902Z,16.90
2017-08-12T01:17:41.096Z,16.90
2017-08-12T01:20:09.247Z,17.00
2017-08-12T01:22:37.399Z,17.00
2017-08-12T01:25:05.597Z,17.00
2017-08-12T01:27:33.750Z,17.00
2017-08-12T01:30:01.916Z,17.10
2017-08-12T01:32:30.095Z,17.10
2017-08-12T01:34:58.267Z,17.10
2017-08-12T01:37:26.436Z,17.00
2017-08-12T01:39:54.610Z,17.00
2017-08-12T01:42:23.551Z,16.90
2017-08-12T01:44:51.714Z,16.90
2017-08-12T01:47:19.885Z,16.90
2017-08-12T01:49:48.060Z,16.90
2017-08-12T01:52:16.232Z,16.90
2017-08-12T01:54:44.431Z,16.80
2017-08-12T01:57:12.586Z,16.80
2017-08-12T01:59:40.730Z,16.80
2017-08-12T02:02:08.900Z,16.90
2017-08-12T02:04:37.055Z,16.90
2017-08-12T02:07:05.994Z,16.80
2017-08-12T02:09:34.169Z,16.80
2017-08-12T02:12:02.335Z,16.80
2017-08-12T02:14:30.481Z,16.80
2017-08-12T02:16:59.421Z,16.90
2017-08-12T02:19:27.581Z,16.80
2017-08-12T02:21:55.726Z,16.80
2017-08-12T02:24:24.688Z,16.90
2017-08-12T02:26:52.856Z,16.80
2017-08-12T02:29:21.021Z,16.90
2017-08-12T02:31:49.195Z,16.80
2017-08-12T02:34:17.362Z,16.60
2017-08-12T02:36:45.527Z,16.70
2017-08-12T02:39:13.705Z,16.60
2017-08-12T02:41:41.880Z,16.70
2017-08-12T02:44:10.030Z,16.60
2017-08-12T02:46:38.232Z,16.50
2017-08-12T02:49:06.410Z,16.60
2017-08-12T02:51:34.555Z,16.50
2017-08-12T02:54:02.733Z,16.60
2017-08-12T02:56:30.899Z,16.60
2017-08-12T02:58:59.067Z,16.50
2017-08-12T03:01:27.270Z,16.60
2017-08-12T03:03:55.441Z,16.60
2017-08-12T03:06:23.609Z,16.60
2017-08-12T03:08:51.805Z,16.50
2017-08-12T03:11:19.953Z,16.50
2017-08-12T03:13:48.116Z,16.40
2017-08-12T03:16:17.171Z,16.50
2017-08-12T03:18:45.345Z,16.40
2017-08-12T03:21:13.502Z,16.40
2017-08-12T03:23:41.707Z,16.40
2017-08-12T03:26:09.854Z,16.40
2017-08-12T03:28:38.021Z,16.40
2017-08-12T03:31:06.234Z,16.40
2017-08-12T03:33:34.390Z,16.40
2017-08-12T03:36:02.565Z,16.30
2017-08-12T03:38:30.772Z,16.30
2017-08-12T03:40:59.710Z,16.40
2017-08-12T03:43:27.857Z,16.40
2017-08-12T03:45:56.043Z,16.30
2017-08-12T03:48:24.217Z,16.20
2017-08-12T03:50:52.380Z,16.20
2017-08-12T03:53:20.559Z,16.30
2017-08-12T03:55:48.729Z,16.30
2017-08-12T03:58:16.900Z,16.30
2017-08-12T04:00:45.416Z,16.40
2017-08-12T04:03:13.590Z,16.40
2017-08-12T04:05:41.763Z,16.40
2017-08-12T04:08:09.961Z,16.30
2017-08-12T04:10:38.113Z,16.30
2017-08-12T04:13:06.261Z,16.30
2017-08-12T04:15:34.499Z,16.10
2017-08-12T04:18:02.650Z,16.10
2017-08-12T04:20:30.801Z,16.10
2017-08-12T04:22:58.996Z,16.20
2017-08-12T04:25:27.174Z,16.20
2017-08-12T04:27:55.343Z,16.30
2017-08-12T04:30:23.519Z,16.20
2017-08-12T04:32:51.689Z,16.30
2017-08-12T04:35:19.837Z,16.30
2017-08-12T04:37:48.347Z,16.30
2017-08-12T04:40:16.509Z,16.30
2017-08-12T04:42:44.689Z,16.40
2017-08-12T04:45:12.876Z,16.40
2017-08-12T04:47:41.056Z,16.40
2017-08-12T04:50:09.539Z,16.50
2017-08-12T04:52:37.741Z,16.40
2017-08-12T04:55:05.931Z,16.40
2017-08-12T04:57:34.106Z,16.40
2017-08-12T05:00:02.285Z,16.50
2017-08-12T05:02:30.440Z,16.50
2017-08-12T05:04:58.614Z,16.50
2017-08-12T05:07:26.817Z,16.40
2017-08-12T05:09:54.997Z,16.50
2017-08-12T05:12:23.937Z,16.40
2017-08-12T05:14:52.120Z,16.40
2017-08-12T05:17:20.272Z,16.20
2017-08-12T05:19:48.445Z,16.30
2017-08-12T05:22:16.640Z,16.30
2017-08-12T05:24:44.805Z,16.30
2017-08-12T05:27:12.972Z,16.30
2017-08-12T05:29:41.178Z,16.40
2017-08-12T05:32:09.349Z,16.40
2017-08-12T05:34:37.498Z,16.50
2017-08-12T05:37:06.451Z,16.60
2017-08-12T05:39:34.650Z,16.60
2017-08-12T05:42:02.829Z,16.60
2017-08-12T05:44:31.056Z,16.50
2017-08-12T05:46:59.229Z,16.50
2017-08-12T05:49:27.387Z,16.60
2017-08-12T05:51:55.585Z,16.60
2017-08-12T05:54:23.740Z,16.60
2017-08-12T05:56:51.930Z,16.60
2017-08-12T05:59:20.102Z,16.60
2017-08-12T06:01:48.262Z,16.60
2017-08-12T06:04:17.184Z,16.50
2017-08-12T06:06:45.667Z,16.50
2017-08-12T06:09:13.814Z,16.50
2017-08-12T06:11:42.754Z,16.60
2017-08-12T06:14:10.939Z,16.60
2017-08-12T06:16:39.093Z,16.70
2017-08-12T06:19:07.246Z,16.70
2017-08-12T06:21:35.459Z,16.80
2017-08-12T06:24:03.640Z,16.90
2017-08-12T06:26:31.816Z,16.90
2017-08-12T06:28:59.990Z,17.00
2017-08-12T06:31:28.141Z,17.10
2017-08-12T06:33:56.295Z,17.30
2017-08-12T06:36:24.496Z,17.30
2017-08-12T06:38:52.674Z,17.30
2017-08-12T06:41:20.818Z,17.40
2017-08-12T06:43:49.013Z,17.50
2017-08-12T06:46:17.180Z,17.70
2017-08-12T06:48:45.360Z,17.60
2017-08-12T06:51:13.554Z,17.40
2017-08-12T06:53:41.731Z,17.30
2017-08-12T06:56:09.912Z,17.40
2017-08-12T06:58:38.090Z,17.30
2017-08-12T07:01:06.246Z,17.20
2017-08-12T07:03:34.425Z,17.20
2017-08-12T07:06:02.614Z,17.20
2017-08-12T07:08:30.773Z,17.30
2017-08-12T07:10:58.951Z,17.20
2017-08-12T07:13:27.127Z,17.10
2017-08-12T07:15:55.301Z,17.00
2017-08-12T07:18:23.466Z,17.00
2017-08-12T07:20:51.651Z,17.00
2017-08-12T07:23:19.797Z,17.00
2017-08-12T07:25:47.953Z,17.00
2017-08-12T07:28:16.258Z,17.00
2017-08-12T07:30:44.476Z,17.00
2017-08-12T07:33:12.666Z,17.20
2017-08-12T07:35:41.692Z,17.50
2017-08-12T07:38:09.860Z,17.50
2017-08-12T07:40:38.011Z,17.50
2017-08-12T07:43:06.981Z,17.70
2017-08-12T07:45:35.131Z,17.70
2017-08-12T07:48:03.284Z,17.80
2017-08-12T07:50:31.489Z,17.80
2017-08-12T07:52:59.647Z,17.70
2017-08-12T07:55:27.806Z,17.70
2017-08-12T07:57:56.012Z,17.70
2017-08-12T08:00:24.163Z,17.70
2017-08-12T08:02:52.333Z,17.80
2017-08-12T08:05:20.541Z,18.00
2017-08-12T08:07:48.695Z,18.10
2017-08-12T08:10:16.839Z,18.30
2017-08-12T08:12:45.047Z,18.30
2017-08-12T08:15:13.200Z,18.30
2017-08-12T08:17:41.358Z,18.40
2017-08-12T08:20:10.321Z,18.40
2017-08-12T08:22:38.488Z,18.40
2017-08-12T08:25:06.641Z,18.50
2017-08-12T08:27:34.822Z,18.20
2017-08-12T08:30:02.992Z,18.00
2017-08-12T08:32:31.147Z,18.10
2017-08-12T08:34:59.321Z,18.40
2017-08-12T08:37:27.493Z,18.50
2017-08-12T08:39:55.673Z,18.50
2017-08-12T08:42:23.873Z,18.50
2017-08-12T08:44:52.026Z,18.70
2017-08-12T08:47:20.174Z,18.70
2017-08-12T08:49:48.373Z,18.40
2017-08-12T08:52:16.529Z,18.50
2017-08-12T08:54:44.678Z,18.50
2017-08-12T08:57:13.627Z,18.40
2017-08-12T08:59:41.774Z,18.40
2017-08-12T09:02:09.944Z,18.20
2017-08-12T09:04:38.125Z,18.40
2017-08-12T09:07:06.285Z,18.20
2017-08-12T09:09:34.447Z,18.20
2017-08-12T09:12:02.647Z,18.00
2017-08-12T09:14:30.816Z,17.90
2017-08-12T09:16:58.969Z,17.80
2017-08-12T09:19:27.944Z,17.60
2017-08-12T09:21:56.099Z,17.60
2017-08-12T09:24:24.249Z,17.60
2017-08-12T09:26:52.428Z,17.50
2017-08-12T09:29:20.574Z,17.30
2017-08-12T09:31:48.735Z,17.20
2017-08-12T09:34:17.704Z,17.20
2017-08-12T09:36:45.875Z,17.10
2017-08-12T09:39:14.507Z,17.20
2017-08-12T09:41:42.693Z,17.20
2017-08-12T09:44:10.868Z,17.30
2017-08-12T09:46:39.019Z,17.20
2017-08-12T09:49:07.991Z,17.20
2017-08-12T09:51:36.161Z,17.10
2017-08-12T09:54:04.334Z,17.10
2017-08-12T09:56:32.515Z,17.00
2017-08-12T09:59:00.673Z,16.90
2017-08-12T10:01:28.849Z,16.90
2017-08-12T10:03:57.042Z,16.80
2017-08-12T10:06:25.200Z,16.90
2017-08-12T10:08:53.354Z,17.00
2017-08-12T10:11:21.538Z,17.00
2017-08-12T10:13:49.702Z,17.00
2017-08-12T10:16:17.871Z,17.00
2017-08-12T10:18:46.059Z,17.00
2017-08-12T10:21:14.207Z,17.10
2017-08-12T10:23:42.360Z,17.10
2017-08-12T10:26:10.566Z,17.20
2017-08-12T10:28:38.733Z,17.20
2017-08-12T10:31:06.905Z,17.20
2017-08-12T10:33:35.089Z,17.20
2017-08-12T10:36:03.257Z,17.30
2017-08-12T10:38:31.405Z,17.40
2017-08-12T10:41:00.373Z,17.60
2017-08-12T10:43:28.541Z,17.60
2017-08-12T10:45:56.709Z,17.80
2017-08-12T10:48:24.908Z,17.90
2017-08-12T10:50:53.830Z,18.00
2017-08-12T10:53:22.016Z,18.00
2017-08-12T10:55:50.209Z,17.90
2017-08-12T10:58:18.386Z,17.70
2017-08-12T11:00:46.538Z,17.60
2017-08-12T11:03:14.741Z,17.50
2017-08-12T11:05:42.893Z,17.60
2017-08-12T11:08:11.051Z,17.80
2017-08-12T11:10:39.280Z,18.00
2017-08-12T11:13:07.427Z,18.10
2017-08-12T11:15:35.582Z,18.20
2017-08-12T11:18:03.771Z,18.30
2017-08-12T11:20:31.947Z,18.20
2017-08-12T11:23:00.105Z,18.10
2017-08-12T11:25:28.303Z,18.10
2017-08-12T11:27:57.448Z,18.10
2017-08-12T11:30:26.389Z,18.00
2017-08-12T11:32:54.579Z,18.00
2017-08-12T11:35:22.749Z,18.10
2017-08-12T11:37:50.920Z,18.20
2017-08-12T11:40:20.123Z,18.10
2017-08-12T11:42:48.280Z,17.80
2017-08-12T11:45:16.434Z,17.80
2017-08-12T11:47:44.611Z,17.70
2017-08-12T11:50:12.764Z,17.70
2017-08-12T11:52:41.708Z,17.60
2017-08-12T11:55:10.572Z,17.60
2017-08-12T11:57:38.727Z,17.50
2017-08-12T12:00:07.654Z,17.50
2017-08-12T12:02:35.838Z,17.50
2017-08-12T12:05:04.017Z,17.60
2017-08-12T12:07:32.169Z,17.60
2017-08-12T12:10:00.343Z,17.60
2017-08-12T12:12:28.512Z,17.50
2017-08-12T12:14:57.012Z,17.50
2017-08-12T12:17:25.219Z,17.70
2017-08-12T12:19:53.370Z,17.70
2017-08-12T12:22:21.526Z,17.70
2017-08-12T12:24:49.731Z,17.60
2017-08-12T12:27:17.896Z,17.70
2017-08-12T12:29:46.065Z,17.50
2017-08-12T12:32:14.267Z,17.40
2017-08-12T12:34:42.422Z,17.50
2017-08-12T12:37:10.578Z,17.40
2017-08-12T12:39:38.765Z,17.40
2017-08-12T12:42:06.920Z,17.30
2017-08-12T12:44:35.062Z,17.30
2017-08-12T12:47:04.004Z,17.40
2017-08-12T12:49:32.149Z,17.40
2017-08-12T12:52:00.318Z,17.60
2017-08-12T12:54:28.517Z,17.60
2017-08-12T12:56:56.688Z,17.90
2017-08-12T12:59:24.901Z,18.10
2017-08-12T13:01:53.070Z,18.10
2017-08-12T13:04:21.237Z,17.90
2017-08-12T13:06:49.397Z,17.90
2017-08-12T13:09:17.572Z,17.80
2017-08-12T13:11:45.719Z,17.80
2017-08-12T13:14:13.869Z,17.80
2017-08-12T13:16:42.806Z,17.70
2017-08-12T13:19:10.970Z,17.70
2017-08-12T13:21:39.118Z,17.50
2017-08-12T13:24:07.322Z,17.30
2017-08-12T13:26:35.481Z,17.30
2017-08-12T13:29:03.986Z,17.30
2017-08-12T13:31:32.159Z,17.30
2017-08-12T13:34:00.320Z,17.20
2017-08-12T13:36:28.469Z,17.20
2017-08-12T13:38:56.643Z,17.10
2017-08-12T13:41:25.574Z,17.20
2017-08-12T13:43:53.730Z,17.20
2017-08-12T13:46:21.921Z,17.10
2017-08-12T13:48:50.085Z,17.20
2017-08-12T13:51:18.231Z,17.30
2017-08-12T13:53:47.185Z,17.50
2017-08-12T13:56:15.343Z,17.50
2017-08-12T13:58:43.505Z,17.50
2017-08-12T14:01:11.683Z,17.20
2017-08-12T14:03:39.826Z,16.90
2017-08-12T14:06:07.989Z,17.00
2017-08-12T14:08:36.936Z,17.10
2017-08-12T14:11:05.082Z,17.10
2017-08-12T14:13:33.250Z,17.20
2017-08-12T14:16:01.426Z,17.10
2017-08-12T14:18:29.570Z,17.00
2017-08-12T14:20:57.733Z,17.10
2017-08-12T14:23:25.922Z,17.10
2017-08-12T14:25:54.090Z,17.10
2017-08-12T14:28:22.252Z,17.20
2017-08-12T14:30:50.442Z,17.30
2017-08-12T14:33:18.613Z,17.40
2017-08-12T14:35:46.756Z,17.60
2017-08-12T14:38:14.939Z,17.50
2017-08-12T14:40:43.104Z,17.40
2017-08-12T14:43:11.250Z,17.50
2017-08-12T14:45:39.449Z,17.50
2017-08-12T14:48:07.599Z,17.50
2017-08-12T14:50:36.017Z,17.50
2017-08-12T14:53:04.205Z,17.50
2017-08-12T14:55:32.372Z,17.50
2017-08-12T14:58:00.524Z,17.60
2017-08-12T15:00:28.721Z,17.70
2017-08-12T15:02:56.876Z,17.80
2017-08-12T15:05:25.032Z,17.90
2017-08-12T15:07:53.201Z,17.90
2017-08-12T15:10:21.372Z,17.90
2017-08-12T15:12:49.552Z,17.80
2017-08-12T15:15:17.732Z,17.90
2017-08-12T15:17:45.878Z,17.90
2017-08-12T15:20:14.799Z,17.90
2017-08-12T15:22:42.974Z,17.90
2017-08-12T15:25:11.128Z,17.80
2017-08-12T15:27:40.058Z,18.00
2017-08-12T15:30:08.427Z,17.90
2017-08-12T15:32:37.209Z,18.10
2017-08-12T15:35:05.350Z,18.10
2017-08-12T15:37:33.545Z,18.10
2017-08-12T15:40:01.721Z,18.10
2017-08-12T15:42:29.885Z,18.20
2017-08-12T15:44:58.064Z,18.30
2017-08-12T15:47:26.212Z,18.20
2017-08-12T15:49:54.359Z,18.30
2017-08-12T15:52:22.531Z,18.30
2017-08-12T15:54:50.697Z,18.20
2017-08-12T15:57:18.846Z,18.30
2017-08-12T15:59:47.017Z,18.40
2017-08-12T16:02:15.166Z,18.50
2017-08-12T16:04:44.108Z,18.60
2017-08-12T16:07:12.316Z,18.60
2017-08-12T16:09:40.465Z,18.70
2017-08-12T16:12:08.632Z,18.80
2017-08-12T16:14:36.805Z,18.90
2017-08-12T16:17:04.959Z,18.90
2017-08-12T16:19:33.107Z,18.90
2017-08-12T16:22:02.071Z,18.80
2017-08-12T16:24:30.237Z,18.80
2017-08-12T16:26:58.386Z,18.90
2017-08-12T16:29:26.558Z,19.00
2017-08-12T16:31:54.703Z,19.00
2017-08-12T16:34:23.625Z,19.10
2017-08-12T16:36:51.813Z,19.00
2017-08-12T16:39:19.976Z,19.00
2017-08-12T16:41:48.137Z,18.80
2017-08-12T16:44:16.335Z,18.70
2017-08-12T16:46:44.483Z,18.60
2017-08-12T16:49:12.652Z,18.50
2017-08-12T16:51:40.868Z,18.40
2017-08-12T16:54:09.010Z,18.50
2017-08-12T16:56:37.172Z,18.40
2017-08-12T16:59:05.696Z,18.40
2017-08-12T17:01:33.864Z,18.40
2017-08-12T17:04:02.017Z,18.40
2017-08-12T17:06:30.186Z,18.50
2017-08-12T17:08:58.331Z,18.50
2017-08-12T17:11:26.505Z,18.50
2017-08-12T17:13:54.674Z,18.50
2017-08-12T17:16:22.821Z,18.50
2017-08-12T17:18:50.989Z,18.50
2017-08-12T17:21:19.182Z,18.50
2017-08-12T17:23:47.436Z,18.40
2017-08-12T17:26:15.602Z,18.40
2017-08-12T17:28:44.078Z,18.50
2017-08-12T17:31:12.241Z,18.60
2017-08-12T17:33:40.416Z,18.60
2017-08-12T17:36:08.612Z,18.70
2017-08-12T17:38:36.773Z,18.80
2017-08-12T17:41:04.926Z,18.80
2017-08-12T17:43:33.126Z,18.80
2017-08-12T17:46:01.294Z,18.90
2017-08-12T17:48:29.463Z,18.80
2017-08-12T17:50:57.642Z,18.80
2017-08-12T17:53:25.805Z,18.80
2017-08-12T17:55:53.968Z,18.80
2017-08-12T17:58:22.936Z,19.00
2017-08-12T18:00:51.088Z,18.90
2017-08-12T18:03:19.246Z,19.00
2017-08-12T18:05:47.414Z,18.90
2017-08-12T18:08:15.577Z,18.80
2017-08-12T18:10:43.722Z,18.70
2017-08-12T18:13:12.670Z,18.50
2017-08-12T18:15:40.831Z,18.50
2017-08-12T18:18:08.993Z,18.40
2017-08-12T18:20:37.175Z,18.30
2017-08-12T18:23:05.322Z,18.30
2017-08-12T18:25:34.263Z,18.20
2017-08-12T18:28:02.435Z,18.20
2017-08-12T18:30:30.582Z,18.10
2017-08-12T18:32:58.726Z,18.00
2017-08-12T18:35:27.680Z,18.10
2017-08-12T18:37:55.829Z,18.10
2017-08-12T18:40:23.994Z,17.90
2017-08-12T18:42:52.174Z,17.90
2017-08-12T18:45:20.322Z,17.90
2017-08-12T18:47:49.254Z,17.80
2017-08-12T18:50:17.459Z,17.80
2017-08-12T18:52:45.612Z,17.70
2017-08-12T18:55:13.763Z,17.70
2017-08-12T18:57:41.953Z,17.60
2017-08-12T19:00:10.111Z,17.60
2017-08-12T19:02:38.258Z,17.70
2017-08-12T19:05:07.217Z,17.60
2017-08-12T19:07:35.385Z,17.60
2017-08-12T19:10:03.559Z,17.60
2017-08-12T19:12:31.759Z,17.60
2017-08-12T19:14:59.927Z,17.60
2017-08-12T19:17:28.535Z,17.50
2017-08-12T19:19:57.482Z,17.40
2017-08-12T19:22:25.653Z,17.40
2017-08-12T19:24:53.796Z,17.40
2017-08-12T19:27:21.975Z,17.40
2017-08-12T19:29:50.146Z,17.30
2017-08-12T19:32:18.294Z,17.30
2017-08-12T19:34:46.474Z,17.40
2017-08-12T19:37:15.390Z,17.20
2017-08-12T19:39:43.558Z,17.20
2017-08-12T19:42:11.753Z,17.30
2017-08-12T19:44:39.899Z,17.30
2017-08-12T19:47:08.825Z,17.30
2017-08-12T19:49:37.026Z,17.30
2017-08-12T19:52:05.173Z,17.20
2017-08-12T19:54:33.342Z,17.20
2017-08-12T19:57:01.542Z,17.20
2017-08-12T19:59:29.695Z,17.30
2017-08-12T20:01:57.838Z,17.30
2017-08-12T20:04:26.794Z,17.20
2017-08-12T20:06:54.965Z,17.20
2017-08-12T20:09:23.119Z,17.30
2017-08-12T20:11:51.292Z,17.30
2017-08-12T20:14:19.435Z,17.30
2017-08-12T20:16:47.616Z,17.30
2017-08-12T20:19:15.809Z,17.30
2017-08-12T20:21:43.977Z,17.30
2017-08-12T20:24:12.125Z,17.30
2017-08-12T20:26:41.075Z,17.30
2017-08-12T20:29:09.236Z,17.30
2017-08-12T20:31:37.914Z,17.30
2017-08-12T20:34:06.088Z,17.30
2017-08-12T20:36:34.256Z,17.30
2017-08-12T20:39:02.422Z,17.30
2017-08-12T20:41:30.625Z,17.40
2017-08-12T20:43:58.766Z,17.40
2017-08-12T20:46:26.913Z,17.50
2017-08-12T20:48:55.859Z,17.60
2017-08-12T20:51:24.025Z,17.60
2017-08-12T20:53:52.172Z,17.60
2017-08-12T20:56:20.343Z,17.60
2017-08-12T20:58:49.257Z,17.70
2017-08-12T21:01:17.417Z,17.60
2017-08-12T21:03:45.605Z,17.70
2017-08-12T21:06:13.752Z,17.60
2017-08-12T21:08:42.666Z,17.60
2017-08-12T21:11:10.846Z,17.60
2017-08-12T21:13:38.992Z,17.60
2017-08-12T21:16:07.921Z,17.60
2017-08-12T21:18:36.109Z,17.60
2017-08-12T21:21:04.281Z,17.50
2017-08-12T21:23:32.436Z,17.50
2017-08-12T21:26:00.623Z,17.60
2017-08-12T21:28:28.793Z,17.60
2017-08-12T21:30:56.961Z,17.60
2017-08-12T21:33:25.152Z,17.60
2017-08-12T21:35:53.301Z,17.50
2017-08-12T21:38:21.461Z,17.50
2017-08-12T21:40:50.397Z,17.60
2017-08-12T21:43:18.574Z,17.60
2017-08-12T21:45:46.737Z,17.50
2017-08-12T21:48:14.933Z,17.50
2017-08-12T21:50:43.112Z,17.40
2017-08-12T21:53:11.272Z,17.40
2017-08-12T21:55:39.451Z,17.40
2017-08-12T21:58:07.594Z,17.40
2017-08-12T22:00:35.766Z,17.30
2017-08-12T22:03:03.937Z,17.20
2017-08-12T22:05:32.082Z,17.30
2017-08-12T22:08:00.244Z,17.30
2017-08-12T22:10:28.429Z,17.30
2017-08-12T22:12:56.593Z,17.30
2017-08-12T22:15:24.752Z,17.40
2017-08-12T22:17:52.943Z,17.30
2017-08-12T22:20:21.099Z,17.20
2017-08-12T22:22:49.263Z,17.20
2017-08-12T22:25:17.442Z,17.20
2017-08-12T22:27:45.609Z,17.20
2017-08-12T22:30:13.771Z,17.20
2017-08-12T22:32:41.943Z,17.20
2017-08-12T22:35:10.106Z,17.20
2017-08-12T22:37:38.249Z,17.20
2017-08-12T22:40:06.442Z,17.10
2017-08-12T22:42:34.604Z,17.10
2017-08-12T22:45:02.774Z,17.20
2017-08-12T22:47:30.951Z,17.30
2017-08-12T22:49:59.103Z,17.30
2017-08-12T22:52:27.272Z,17.30
2017-08-12T22:54:55.442Z,17.20
2017-08-12T22:57:23.584Z,17.30
2017-08-12T22:59:51.727Z,17.30
2017-08-12T23:02:20.670Z,17.10
2017-08-12T23:04:48.832Z,17.10
2017-08-12T23:07:16.993Z,17.10
2017-08-12T23:09:45.171Z,17.10
2017-08-12T23:12:13.318Z,17.10
2017-08-12T23:14:42.258Z,17.10
2017-08-12T23:17:10.469Z,17.10
2017-08-12T23:19:38.635Z,17.00
2017-08-12T23:22:06.777Z,17.00
2017-08-12T23:24:35.271Z,16.90
2017-08-12T23:27:03.413Z,16.80
2017-08-12T23:29:31.566Z,16.80
2017-08-12T23:32:00.513Z,16.80
2017-08-12T23:34:28.661Z,16.80
2017-08-12T23:36:56.825Z,16.80
2017-08-12T23:39:25.010Z,16.70
2017-08-12T23:41:53.166Z,16.80
2017-08-12T23:44:21.340Z,16.70
2017-08-12T23:46:50.297Z,16.60
2017-08-12T23:49:18.460Z,16.60
2017-08-12T23:51:46.605Z,16.50
2017-08-12T23:54:14.805Z,16.50
2017-08-12T23:56:42.970Z,16.50
2017-08-12T23:59:11.119Z,16.60
